createdAt,value
2018-09-01T00:02:26.666Z,57.30
2018-09-01T00:07:29.683Z,58.50
2018-09-01T00:12:32.971Z,57.70
2018-09-01T00:17:36.181Z,57.90
2018-09-01T00:22:39.504Z,58.30
2018-09-01T00:27:42.552Z,58.60
2018-09-01T00:32:45.836Z,59.00
2018-09-01T00:37:54.554Z,59.40
2018-09-01T00:42:59.555Z,60.10
2018-09-01T00:48:02.731Z,60.60
2018-09-01T00:53:06.084Z,61.20
2018-09-01T00:58:09.123Z,61.50
2018-09-01T01:03:12.332Z,61.30
2018-09-01T01:08:15.447Z,61.30
2018-09-01T01:13:18.972Z,61.30
2018-09-01T01:18:22.050Z,61.30
2018-09-01T01:23:25.042Z,61.70
2018-09-01T01:28:28.320Z,62.20
2018-09-01T01:33:32.016Z,62.60
2018-09-01T01:38:35.026Z,63.20
2018-09-01T01:43:38.036Z,63.30
2018-09-01T01:48:41.211Z,63.30
2018-09-01T01:53:44.427Z,64.00
2018-09-01T01:58:47.750Z,65.60
2018-09-01T02:03:51.060Z,66.00
2018-09-01T02:08:54.285Z,66.80
2018-09-01T02:13:57.364Z,66.60
2018-09-01T02:19:00.374Z,66.60
2018-09-01T02:24:03.406Z,66.80
2018-09-01T02:29:07.060Z,67.20
2018-09-01T02:34:10.087Z,67.70
2018-09-01T02:39:13.118Z,69.10
2018-09-01T02:44:16.347Z,69.70
2018-09-01T02:49:19.603Z,70.90
2018-09-01T02:54:22.640Z,71.10
2018-09-01T02:59:25.733Z,71.30
2018-09-01T03:04:28.819Z,71.10
2018-09-01T03:09:31.942Z,70.70
2018-09-01T03:14:35.148Z,71.30
2018-09-01T03:19:38.175Z,71.30
2018-09-01T03:24:41.382Z,71.30
2018-09-01T03:29:44.681Z,72.00
2018-09-01T03:34:47.663Z,72.00
2018-09-01T03:39:50.770Z,72.30
2018-09-01T03:44:53.743Z,72.90
2018-09-01T03:49:56.847Z,72.60
2018-09-01T03:54:59.899Z,72.60
2018-09-01T04:00:03.375Z,72.80
2018-09-01T04:05:07.215Z,71.70
2018-09-01T04:10:10.262Z,71.60
2018-09-01T04:15:13.341Z,71.40
2018-09-01T04:20:16.378Z,72.60
2018-09-01T04:25:19.401Z,73.50
2018-09-01T04:30:22.365Z,74.20
2018-09-01T04:35:25.575Z,74.50
2018-09-01T04:40:28.622Z,74.30
2018-09-01T04:45:31.706Z,74.30
2018-09-01T04:50:35.000Z,74.20
2018-09-01T04:55:37.984Z,74.90
2018-09-01T05:00:40.999Z,74.60
2018-09-01T05:05:44.228Z,75.50
2018-09-01T05:10:47.262Z,75.80
2018-09-01T05:15:50.332Z,76.10
2018-09-01T05:20:53.337Z,76.20
2018-09-01T05:25:56.725Z,76.20
2018-09-01T05:30:59.968Z,73.70
2018-09-01T05:36:03.037Z,72.50
2018-09-01T05:41:06.229Z,71.70
2018-09-01T05:46:09.248Z,70.50
2018-09-01T05:51:12.507Z,70.30
2018-09-01T05:56:15.753Z,69.30
2018-09-01T06:01:19.015Z,67.90
2018-09-01T06:06:22.247Z,66.40
2018-09-01T06:11:25.530Z,65.40
2018-09-01T06:16:28.626Z,62.70
2018-09-01T06:21:31.621Z,60.10
2018-09-01T06:26:34.653Z,56.70
2018-09-01T06:31:40.471Z,56.00
2018-09-01T06:36:43.725Z,55.00
2018-09-01T06:41:46.807Z,53.00
2018-09-01T06:46:49.737Z,52.90
2018-09-01T06:51:52.949Z,53.10
2018-09-01T06:56:55.971Z,51.50
2018-09-01T07:01:59.089Z,51.40
2018-09-01T07:07:02.279Z,50.80
2018-09-01T07:12:05.783Z,49.60
2018-09-01T07:17:09.199Z,49.00
2018-09-01T07:22:12.217Z,47.30
2018-09-01T07:27:15.516Z,45.70
2018-09-01T07:32:18.677Z,46.60
2018-09-01T07:37:22.023Z,44.30
2018-09-01T07:42:25.041Z,44.80
2018-09-01T07:47:28.362Z,45.30
2018-09-01T07:52:31.313Z,46.70
2018-09-01T07:57:34.571Z,47.80
2018-09-01T08:02:37.815Z,48.10
2018-09-01T08:07:40.965Z,48.30
2018-09-01T08:12:44.032Z,47.10
2018-09-01T08:17:47.221Z,47.60
2018-09-01T08:22:50.486Z,47.00
2018-09-01T08:27:53.572Z,47.60
2018-09-01T08:32:56.820Z,45.00
2018-09-01T08:37:59.940Z,44.70
2018-09-01T08:43:03.088Z,43.90
2018-09-01T08:48:06.350Z,43.90
2018-09-01T08:53:09.552Z,44.40
2018-09-01T08:58:12.849Z,43.40
2018-09-01T09:03:15.924Z,42.90
2018-09-01T09:08:19.184Z,43.20
2018-09-01T09:13:22.236Z,42.20
2018-09-01T09:18:25.384Z,42.90
2018-09-01T09:23:28.436Z,41.40
2018-09-01T09:28:31.621Z,41.10
2018-09-01T09:33:34.726Z,40.30
2018-09-01T09:38:38.057Z,40.30
2018-09-01T09:43:41.448Z,40.80
2018-09-01T09:48:44.616Z,38.80
2018-09-01T09:53:47.959Z,40.20
2018-09-01T09:58:51.593Z,38.40
2018-09-01T10:03:54.732Z,38.40
2018-09-01T10:08:57.828Z,38.40
2018-09-01T10:14:00.870Z,38.20
2018-09-01T10:19:04.126Z,37.40
2018-09-01T10:24:07.989Z,39.20
2018-09-01T10:29:11.316Z,38.00
2018-09-01T10:34:14.559Z,39.00
2018-09-01T10:39:17.867Z,38.90
2018-09-01T10:44:21.071Z,36.70
2018-09-01T10:49:24.308Z,35.40
2018-09-01T10:54:27.337Z,37.30
2018-09-01T10:59:30.524Z,36.40
2018-09-01T11:04:33.479Z,35.20
2018-09-01T11:09:36.504Z,36.70
2018-09-01T11:14:39.721Z,37.10
2018-09-01T11:19:42.993Z,37.50
2018-09-01T11:24:46.527Z,38.00
2018-09-01T11:29:49.864Z,38.20
2018-09-01T11:34:53.280Z,39.10
2018-09-01T11:39:56.483Z,37.80
2018-09-01T11:44:59.500Z,37.00
2018-09-01T11:50:02.770Z,36.00
2018-09-01T11:55:06.625Z,34.10
2018-09-01T12:00:10.037Z,35.20
2018-09-01T12:05:13.232Z,32.90
2018-09-01T12:10:16.283Z,35.80
2018-09-01T12:15:19.482Z,37.80
2018-09-01T12:20:22.758Z,37.00
2018-09-01T12:25:25.965Z,37.50
2018-09-01T12:30:29.153Z,36.30
2018-09-01T12:35:32.237Z,34.20
2018-09-01T12:40:35.498Z,33.20
2018-09-01T12:45:39.060Z,36.20
2018-09-01T12:50:42.439Z,35.50
2018-09-01T12:55:45.529Z,35.00
2018-09-01T13:00:48.898Z,34.00
2018-09-01T13:05:52.061Z,33.70
2018-09-01T13:10:55.323Z,33.40
2018-09-01T13:15:58.453Z,33.70
2018-09-01T13:21:01.569Z,32.80
2018-09-01T13:26:04.808Z,33.60
2018-09-01T13:31:08.206Z,33.40
2018-09-01T13:36:11.313Z,33.20
2018-09-01T13:41:14.341Z,32.70
2018-09-01T13:46:17.491Z,33.50
2018-09-01T13:51:20.752Z,33.00
2018-09-01T13:56:23.946Z,33.20
2018-09-01T14:01:27.136Z,33.00
2018-09-01T14:06:30.156Z,32.30
2018-09-01T14:11:33.168Z,31.80
2018-09-01T14:16:36.443Z,32.00
2018-09-01T14:21:39.492Z,31.40
2018-09-01T14:26:42.620Z,32.70
2018-09-01T14:31:45.608Z,32.70
2018-09-01T14:36:48.676Z,31.80
2018-09-01T14:41:51.759Z,31.90
2018-09-01T14:46:54.879Z,31.60
2018-09-01T14:51:58.119Z,32.40
2018-09-01T14:57:01.175Z,32.60
2018-09-01T15:02:04.537Z,32.70
2018-09-01T15:07:07.663Z,32.10
2018-09-01T15:12:10.834Z,33.00
2018-09-01T15:17:14.016Z,32.30
2018-09-01T15:22:17.149Z,31.40
2018-09-01T15:27:20.376Z,31.80
2018-09-01T15:32:23.651Z,32.10
2018-09-01T15:37:26.999Z,31.80
2018-09-01T15:42:30.074Z,32.30
2018-09-01T15:47:33.410Z,32.10
2018-09-01T15:52:36.467Z,32.10
2018-09-01T15:57:39.735Z,31.60
2018-09-01T16:02:42.773Z,31.50
2018-09-01T16:07:45.876Z,32.30
2018-09-01T16:12:52.412Z,32.60
2018-09-01T16:17:55.736Z,32.60
2018-09-01T16:22:58.922Z,32.30
2018-09-01T16:28:02.495Z,32.60
2018-09-01T16:33:07.394Z,32.00
2018-09-01T16:38:10.619Z,32.40
2018-09-01T16:43:13.936Z,32.80
2018-09-01T16:48:17.016Z,33.40
2018-09-01T16:53:20.271Z,33.40
2018-09-01T16:58:23.268Z,32.70
2018-09-01T17:03:26.276Z,33.20
2018-09-01T17:08:29.397Z,32.80
2018-09-01T17:13:32.394Z,33.80
2018-09-01T17:18:35.497Z,34.20
2018-09-01T17:23:38.690Z,34.20
2018-09-01T17:28:41.760Z,34.50
2018-09-01T17:33:45.877Z,34.20
2018-09-01T17:38:48.830Z,35.00
2018-09-01T17:43:51.869Z,35.10
2018-09-01T17:48:54.885Z,36.60
2018-09-01T17:53:58.140Z,37.30
2018-09-01T17:59:01.173Z,38.40
2018-09-01T18:04:04.447Z,38.60
2018-09-01T18:09:07.771Z,39.20
2018-09-01T18:14:10.807Z,39.90
2018-09-01T18:19:13.815Z,40.90
2018-09-01T18:24:16.988Z,42.10
2018-09-01T18:29:20.009Z,41.70
2018-09-01T18:34:23.156Z,41.70
2018-09-01T18:39:26.276Z,42.10
2018-09-01T18:44:29.738Z,42.60
2018-09-01T18:49:32.883Z,43.20
2018-09-01T18:54:36.344Z,43.90
2018-09-01T18:59:39.399Z,44.90
2018-09-01T19:04:42.701Z,45.60
2018-09-01T19:09:45.853Z,46.00
2018-09-01T19:14:48.957Z,45.80
2018-09-01T19:19:52.307Z,46.20
2018-09-01T19:24:55.548Z,46.30
2018-09-01T19:29:58.629Z,46.50
2018-09-01T19:35:01.837Z,47.00
2018-09-01T19:40:06.156Z,47.00
2018-09-01T19:45:09.419Z,46.70
2018-09-01T19:50:12.552Z,46.10
2018-09-01T19:55:15.749Z,45.00
2018-09-01T20:00:18.790Z,45.00
2018-09-01T20:05:22.140Z,45.00
2018-09-01T20:10:25.237Z,45.30
2018-09-01T20:15:28.438Z,46.10
2018-09-01T20:20:31.484Z,45.90
2018-09-01T20:25:34.614Z,46.10
2018-09-01T20:30:38.035Z,45.90
2018-09-01T20:35:46.866Z,45.90
2018-09-01T20:40:49.974Z,45.90
2018-09-01T20:45:53.098Z,45.90
2018-09-01T20:50:56.122Z,46.80
2018-09-01T20:55:59.294Z,47.40
2018-09-01T21:01:02.517Z,48.80
2018-09-01T21:06:06.029Z,49.30
2018-09-01T21:11:09.153Z,49.20
2018-09-01T21:16:12.280Z,49.20
2018-09-01T21:21:15.328Z,49.70
2018-09-01T21:26:18.493Z,49.80
2018-09-01T21:31:21.487Z,50.30
2018-09-01T21:36:24.895Z,50.80
2018-09-01T21:41:27.916Z,50.90
2018-09-01T21:46:30.929Z,51.40
2018-09-01T21:51:33.966Z,51.00
2018-09-01T21:56:37.312Z,51.60
2018-09-01T22:01:40.340Z,51.60
2018-09-01T22:06:43.505Z,51.60
2018-09-01T22:11:46.503Z,51.90
2018-09-01T22:16:49.816Z,52.20
2018-09-01T22:21:52.851Z,52.30
2018-09-01T22:26:56.043Z,52.40
2018-09-01T22:31:59.058Z,52.60
2018-09-01T22:37:02.377Z,53.10
2018-09-01T22:42:05.979Z,53.30
2018-09-01T22:47:13.536Z,53.90
2018-09-01T22:52:16.518Z,54.10
2018-09-01T22:57:20.012Z,54.30
2018-09-01T23:02:23.091Z,54.50
2018-09-01T23:07:26.207Z,54.20
2018-09-01T23:12:29.176Z,54.20
2018-09-01T23:17:32.200Z,54.80
2018-09-01T23:22:35.191Z,55.20
2018-09-01T23:27:38.227Z,55.60
2018-09-01T23:32:41.207Z,55.60
2018-09-01T23:37:44.408Z,55.50
2018-09-01T23:42:47.552Z,55.50
2018-09-01T23:47:50.598Z,55.40
2018-09-01T23:52:53.771Z,56.10
2018-09-01T23:57:56.765Z,56.40
